Hovedside
METAR-TAF:

METAR-TAF

Lufthavner :

Dubai internasjonale lufthavn

Dubai, De forente arabiske emirater

breddegrad: 25-15-10N, lengdegrad: 055-21-52E, høyde over havet: 8 m

Gjeldene værobservasjon

Denne rapporten ble laget for 34 minutter siden, klokken 09:00 UTC
Vind 10 kt fra Vest
Temperatur 38°C
Luftfuktighet 35%
Trykk 998 hPa
Sikt 10 km eller mer
ingen skyer under 1500 m og ingen bygeskyer

METAR: OMDB 190900Z 28010KT CAVOK 38/20 Q0998 NOSIG

Tid: 13:34 (09:34 UTC)

Varsel

Denne rapporten ble laget for 4 timer og 41 minutter siden, klokken 04:53 UTC
Varsel gyldig fra 19. klokken 06 UTC til 20. klokken 12 UTC
Vind 7 kt fra Sørvest
Sikt: 8000 m
Blir
fra 19. klokken 06 UTC til 19. klokken 08 UTC
Vind 13 kt fra Vest-nordvest
Blir
fra 19. klokken 17 UTC til 19. klokken 19 UTC
Vind 5 kt fra Sør
Blir
fra 20. klokken 06 UTC til 20. klokken 08 UTC
Vind 13 kt fra Vest-nordvest

TAF: OMDB 190453Z 1906/2012 22007KT 8000 NSC BECMG 1906/1908 29013KT BECMG 1917/1919 18005KT BECMG 2006/2008 29013KT

Værobservasjoner og værvarsel for over 4000 flyplasser (METAR- og TAF-rapporter).

Tilgjengelige stasjoner er representert av de røde og gule prikkene på kartet.

Hold musepekeren over prikken for å se navnet på stasjonen.

Klikk så for å se værobservasjoner og -varsler.

For å forandre kartet kan du klikke på den grønne knappen med svart kryss for å zoome inn, på den grønne knappen med strek for å zoome ut, eller på de grønne pilene for å se tilstøtende kart.


METAR-TAF: